sensor_id;sensor_type;location;lat;lon;timestamp;temperature;humidity
52643;DHT22;38531;53.296;6.614;2022-12-19T00:05:12;0.10;99.90
52643;DHT22;38531;53.296;6.614;2022-12-19T00:08:27;0.10;99.90
52643;DHT22;38531;53.296;6.614;2022-12-19T00:14:37;0.10;99.90
52643;DHT22;38531;53.296;6.614;2022-12-19T00:24:20;0.20;99.90
52643;DHT22;38531;53.296;6.614;2022-12-19T00:33:52;0.30;99.90
52643;DHT22;38531;53.296;6.614;2022-12-19T00:46:20;0.30;99.90
52643;DHT22;38531;53.296;6.614;2022-12-19T00:56:06;0.40;99.90
52643;DHT22;38531;53.296;6.614;2022-12-19T00:59:17;0.40;99.90
52643;DHT22;38531;53.296;6.614;2022-12-19T01:02:30;0.40;99.90
52643;DHT22;38531;53.296;6.614;2022-12-19T01:09:08;0.50;99.90
52643;DHT22;38531;53.296;6.614;2022-12-19T01:15:37;0.50;99.90
52643;DHT22;38531;53.296;6.614;2022-12-19T01:18:48;0.50;99.90
52643;DHT22;38531;53.296;6.614;2022-12-19T01:22:12;0.40;99.90
52643;DHT22;38531;53.296;6.614;2022-12-19T01:25:15;0.50;99.90
52643;DHT22;38531;53.296;6.614;2022-12-19T01:28:18;0.50;99.90
52643;DHT22;38531;53.296;6.614;2022-12-19T01:31:04;0.50;99.90
52643;DHT22;38531;53.296;6.614;2022-12-19T01:34:28;0.50;99.90
52643;DHT22;38531;53.296;6.614;2022-12-19T01:37:44;0.50;99.90
52643;DHT22;38531;53.296;6.614;2022-12-19T01:40:55;0.50;99.90
52643;DHT22;38531;53.296;6.614;2022-12-19T01:43:57;0.50;99.90
52643;DHT22;38531;53.296;6.614;2022-12-19T01:47:03;0.60;99.90
52643;DHT22;38531;53.296;6.614;2022-12-19T01:50:10;0.60;99.90
52643;DHT22;38531;53.296;6.614;2022-12-19T01:53:39;0.60;99.90
52643;DHT22;38531;53.296;6.614;2022-12-19T01:57:08;0.60;99.90
52643;DHT22;38531;53.296;6.614;2022-12-19T02:00:16;0.60;99.90
52643;DHT22;38531;53.296;6.614;2022-12-19T02:03:05;0.70;99.90
52643;DHT22;38531;53.296;6.614;2022-12-19T02:06:25;0.70;99.90
52643;DHT22;38531;53.296;6.614;2022-12-19T02:09:34;0.70;99.90
52643;DHT22;38531;53.296;6.614;2022-12-19T02:12:29;0.70;99.90
52643;DHT22;38531;53.296;6.614;2022-12-19T02:15:32;1.20;99.90
52643;DHT22;38531;53.296;6.614;2022-12-19T02:39:04;0.80;99.90
52643;DHT22;38531;53.296;6.614;2022-12-19T02:45:22;0.80;99.90
52643;DHT22;38531;53.296;6.614;2022-12-19T02:48:38;0.90;99.90
52643;DHT22;38531;53.296;6.614;2022-12-19T02:51:53;0.90;99.90
52643;DHT22;38531;53.296;6.614;2022-12-19T02:54:25;0.90;99.90
52643;DHT22;38531;53.296;6.614;2022-12-19T02:57:31;0.90;99.90
52643;DHT22;38531;53.296;6.614;2022-12-19T03:11:14;1.00;99.90
52643;DHT22;38531;53.296;6.614;2022-12-19T03:14:46;1.10;99.90
52643;DHT22;38531;53.296;6.614;2022-12-19T03:18:06;1.10;99.90
52643;DHT22;38531;53.296;6.614;2022-12-19T03:24:56;1.10;99.90
52643;DHT22;38531;53.296;6.614;2022-12-19T03:28:11;1.10;99.90
52643;DHT22;38531;53.296;6.614;2022-12-19T03:31:34;1.10;99.90
52643;DHT22;38531;53.296;6.614;2022-12-19T03:38:15;1.20;99.90
52643;DHT22;38531;53.296;6.614;2022-12-19T03:45:08;1.30;99.90
52643;DHT22;38531;53.296;6.614;2022-12-19T03:52:00;1.40;99.90
52643;DHT22;38531;53.296;6.614;2022-12-19T04:08:50;1.60;99.90
52643;DHT22;38531;53.296;6.614;2022-12-19T04:11:53;1.70;99.90
52643;DHT22;38531;53.296;6.614;2022-12-19T04:21:38;1.70;99.90
52643;DHT22;38531;53.296;6.614;2022-12-19T04:31:32;1.80;99.90
52643;DHT22;38531;53.296;6.614;2022-12-19T04:38:18;1.90;99.90
52643;DHT22;38531;53.296;6.614;2022-12-19T04:44:47;2.00;99.90
52643;DHT22;38531;53.296;6.614;2022-12-19T05:00:58;2.20;99.90
52643;DHT22;38531;53.296;6.614;2022-12-19T05:07:34;2.20;99.90
52643;DHT22;38531;53.296;6.614;2022-12-19T05:10:57;2.30;99.90
52643;DHT22;38531;53.296;6.614;2022-12-19T05:23:34;2.30;99.90
52643;DHT22;38531;53.296;6.614;2022-12-19T05:27:00;2.30;99.90
52643;DHT22;38531;53.296;6.614;2022-12-19T05:30:18;2.40;99.90
52643;DHT22;38531;53.296;6.614;2022-12-19T05:36:47;2.40;99.90
52643;DHT22;38531;53.296;6.614;2022-12-19T05:39:58;2.40;99.90
52643;DHT22;38531;53.296;6.614;2022-12-19T05:42:50;2.50;99.90
52643;DHT22;38531;53.296;6.614;2022-12-19T05:46:04;2.50;99.90
52643;DHT22;38531;53.296;6.614;2022-12-19T05:49:17;1.50;99.90
52643;DHT22;38531;53.296;6.614;2022-12-19T05:52:00;2.60;99.90
52643;DHT22;38531;53.296;6.614;2022-12-19T05:55:08;2.60;99.90
52643;DHT22;38531;53.296;6.614;2022-12-19T05:58:22;2.60;99.90
52643;DHT22;38531;53.296;6.614;2022-12-19T06:01:24;2.60;99.90
52643;DHT22;38531;53.296;6.614;2022-12-19T06:04:24;2.60;99.90
52643;DHT22;38531;53.296;6.614;2022-12-19T06:07:10;2.70;99.90
52643;DHT22;38531;53.296;6.614;2022-12-19T06:13:59;2.70;99.90
52643;DHT22;38531;53.296;6.614;2022-12-19T06:16:25;2.70;99.90
52643;DHT22;38531;53.296;6.614;2022-12-19T06:26:28;2.90;99.90
52643;DHT22;38531;53.296;6.614;2022-12-19T06:29:30;2.90;99.90
52643;DHT22;38531;53.296;6.614;2022-12-19T06:35:39;3.00;99.90
52643;DHT22;38531;53.296;6.614;2022-12-19T06:38:29;3.00;99.90
52643;DHT22;38531;53.296;6.614;2022-12-19T06:51:13;3.20;99.90
52643;DHT22;38531;53.296;6.614;2022-12-19T06:57:28;3.20;99.90
52643;DHT22;38531;53.296;6.614;2022-12-19T07:00:17;3.30;99.90
52643;DHT22;38531;53.296;6.614;2022-12-19T07:02:56;3.30;99.90
52643;DHT22;38531;53.296;6.614;2022-12-19T07:05:40;3.30;99.90
52643;DHT22;38531;53.296;6.614;2022-12-19T07:08:55;3.40;99.90
52643;DHT22;38531;53.296;6.614;2022-12-19T07:12:11;3.10;99.90
52643;DHT22;38531;53.296;6.614;2022-12-19T07:15:15;3.50;99.90
52643;DHT22;38531;53.296;6.614;2022-12-19T07:18:04;3.50;99.90
52643;DHT22;38531;53.296;6.614;2022-12-19T07:28:01;3.60;99.90
52643;DHT22;38531;53.296;6.614;2022-12-19T07:34:24;3.70;99.90
52643;DHT22;38531;53.296;6.614;2022-12-19T07:40:58;3.80;99.90
52643;DHT22;38531;53.296;6.614;2022-12-19T07:47:09;3.90;99.90
52643;DHT22;38531;53.296;6.614;2022-12-19T07:57:11;4.00;99.90
52643;DHT22;38531;53.296;6.614;2022-12-19T08:00:11;4.00;99.90
52643;DHT22;38531;53.296;6.614;2022-12-19T08:09:31;4.10;99.90
52643;DHT22;38531;53.296;6.614;2022-12-19T08:12:20;4.10;99.90
52643;DHT22;38531;53.296;6.614;2022-12-19T08:15:06;4.10;99.90
52643;DHT22;38531;53.296;6.614;2022-12-19T08:17:59;4.20;99.90
52643;DHT22;38531;53.296;6.614;2022-12-19T08:23:36;4.20;99.90
52643;DHT22;38531;53.296;6.614;2022-12-19T08:26:25;4.30;99.90
52643;DHT22;38531;53.296;6.614;2022-12-19T08:29:20;4.30;99.90
52643;DHT22;38531;53.296;6.614;2022-12-19T08:32:38;4.30;99.90
52643;DHT22;38531;53.296;6.614;2022-12-19T08:35:35;4.30;99.90
52643;DHT22;38531;53.296;6.614;2022-12-19T08:38:40;4.40;99.90
52643;DHT22;38531;53.296;6.614;2022-12-19T08:44:33;3.70;99.90
52643;DHT22;38531;53.296;6.614;2022-12-19T08:47:08;4.50;99.90
52643;DHT22;38531;53.296;6.614;2022-12-19T08:49:51;4.50;99.90
52643;DHT22;38531;53.296;6.614;2022-12-19T08:53:02;4.60;99.90
52643;DHT22;38531;53.296;6.614;2022-12-19T08:56:11;4.60;99.90
52643;DHT22;38531;53.296;6.614;2022-12-19T09:02:34;4.70;99.90
52643;DHT22;38531;53.296;6.614;2022-12-19T09:05:28;4.70;99.90
52643;DHT22;38531;53.296;6.614;2022-12-19T09:08:21;4.80;99.90
52643;DHT22;38531;53.296;6.614;2022-12-19T09:11:16;4.80;99.90
52643;DHT22;38531;53.296;6.614;2022-12-19T09:14:18;4.80;99.90
52643;DHT22;38531;53.296;6.614;2022-12-19T09:17:28;4.80;99.90
52643;DHT22;38531;53.296;6.614;2022-12-19T09:23:34;4.90;99.90
52643;DHT22;38531;53.296;6.614;2022-12-19T09:26:34;4.90;99.90
52643;DHT22;38531;53.296;6.614;2022-12-19T09:29:38;5.20;99.90
52643;DHT22;38531;53.296;6.614;2022-12-19T09:35:26;5.20;99.90
52643;DHT22;38531;53.296;6.614;2022-12-19T09:37:57;5.30;99.90
52643;DHT22;38531;53.296;6.614;2022-12-19T09:40:27;5.40;99.90
52643;DHT22;38531;53.296;6.614;2022-12-19T09:48:38;5.60;99.90
52643;DHT22;38531;53.296;6.614;2022-12-19T09:51:32;5.70;99.90
52643;DHT22;38531;53.296;6.614;2022-12-19T09:56:35;5.70;99.90
52643;DHT22;38531;53.296;6.614;2022-12-19T09:59:19;5.70;99.90
52643;DHT22;38531;53.296;6.614;2022-12-19T10:02:13;5.70;99.90
52643;DHT22;38531;53.296;6.614;2022-12-19T10:04:51;5.70;99.90
52643;DHT22;38531;53.296;6.614;2022-12-19T10:07:23;5.80;99.90
52643;DHT22;38531;53.296;6.614;2022-12-19T10:09:56;5.80;99.90
52643;DHT22;38531;53.296;6.614;2022-12-19T10:21:08;6.10;99.90
52643;DHT22;38531;53.296;6.614;2022-12-19T10:26:41;6.20;99.90
52643;DHT22;38531;53.296;6.614;2022-12-19T10:42:09;6.50;99.90
52643;DHT22;38531;53.296;6.614;2022-12-19T10:44:47;6.60;99.90
52643;DHT22;38531;53.296;6.614;2022-12-19T10:47:33;6.60;99.90
52643;DHT22;38531;53.296;6.614;2022-12-19T10:50:34;6.70;99.90
52643;DHT22;38531;53.296;6.614;2022-12-19T10:53:33;6.70;99.90
52643;DHT22;38531;53.296;6.614;2022-12-19T10:56:28;6.70;99.90
52643;DHT22;38531;53.296;6.614;2022-12-19T10:59:32;6.80;99.90
52643;DHT22;38531;53.296;6.614;2022-12-19T11:02:41;6.80;99.90
52643;DHT22;38531;53.296;6.614;2022-12-19T11:05:45;6.80;99.90
52643;DHT22;38531;53.296;6.614;2022-12-19T11:12:15;6.80;99.90
52643;DHT22;38531;53.296;6.614;2022-12-19T11:15:27;7.00;99.90
52643;DHT22;38531;53.296;6.614;2022-12-19T11:19:02;6.90;99.90
52643;DHT22;38531;53.296;6.614;2022-12-19T11:22:19;7.00;99.90
52643;DHT22;38531;53.296;6.614;2022-12-19T11:25:42;7.00;99.90
52643;DHT22;38531;53.296;6.614;2022-12-19T11:28:49;7.10;99.90
52643;DHT22;38531;53.296;6.614;2022-12-19T11:35:25;7.10;99.90
52643;DHT22;38531;53.296;6.614;2022-12-19T11:38:36;7.10;99.90
52643;DHT22;38531;53.296;6.614;2022-12-19T11:41:36;7.20;99.90
52643;DHT22;38531;53.296;6.614;2022-12-19T11:44:33;7.20;99.90
52643;DHT22;38531;53.296;6.614;2022-12-19T11:47:36;7.30;99.90
52643;DHT22;38531;53.296;6.614;2022-12-19T11:57:10;7.50;99.90
52643;DHT22;38531;53.296;6.614;2022-12-19T12:00:12;7.60;99.90
52643;DHT22;38531;53.296;6.614;2022-12-19T12:03:24;7.60;99.90
52643;DHT22;38531;53.296;6.614;2022-12-19T12:06:49;7.70;99.90
52643;DHT22;38531;53.296;6.614;2022-12-19T12:10:00;7.80;99.90
52643;DHT22;38531;53.296;6.614;2022-12-19T12:25:52;8.00;99.90
52643;DHT22;38531;53.296;6.614;2022-12-19T12:29:05;7.90;99.90
52643;DHT22;38531;53.296;6.614;2022-12-19T12:35:29;8.00;99.90
52643;DHT22;38531;53.296;6.614;2022-12-19T12:47:52;8.10;99.90
52643;DHT22;38531;53.296;6.614;2022-12-19T12:50:47;8.10;99.90
52643;DHT22;38531;53.296;6.614;2022-12-19T12:53:24;8.20;99.90
52643;DHT22;38531;53.296;6.614;2022-12-19T12:55:57;8.10;99.90
52643;DHT22;38531;53.296;6.614;2022-12-19T13:01:38;8.10;99.90
52643;DHT22;38531;53.296;6.614;2022-12-19T13:04:30;8.10;99.90
52643;DHT22;38531;53.296;6.614;2022-12-19T13:09:48;8.20;99.90
52643;DHT22;38531;53.296;6.614;2022-12-19T13:12:31;8.50;99.90
52643;DHT22;38531;53.296;6.614;2022-12-19T13:18:34;8.20;99.90
52643;DHT22;38531;53.296;6.614;2022-12-19T13:21:18;8.20;99.90
52643;DHT22;38531;53.296;6.614;2022-12-19T13:24:12;8.20;99.90
52643;DHT22;38531;53.296;6.614;2022-12-19T13:30:12;8.30;99.90
52643;DHT22;38531;53.296;6.614;2022-12-19T13:35:59;8.30;99.90
52643;DHT22;38531;53.296;6.614;2022-12-19T13:38:44;8.30;99.90
52643;DHT22;38531;53.296;6.614;2022-12-19T13:52:05;8.30;99.90
52643;DHT22;38531;53.296;6.614;2022-12-19T13:55:09;8.40;99.90
52643;DHT22;38531;53.296;6.614;2022-12-19T13:58:13;8.70;99.90
52643;DHT22;38531;53.296;6.614;2022-12-19T14:01:28;8.30;99.90
52643;DHT22;38531;53.296;6.614;2022-12-19T14:04:27;8.00;99.90
52643;DHT22;38531;53.296;6.614;2022-12-19T14:07:37;8.30;99.90
52643;DHT22;38531;53.296;6.614;2022-12-19T14:10:45;8.40;99.90
52643;DHT22;38531;53.296;6.614;2022-12-19T14:13:25;8.40;99.90
52643;DHT22;38531;53.296;6.614;2022-12-19T14:16:28;8.40;99.90
52643;DHT22;38531;53.296;6.614;2022-12-19T14:19:22;8.40;99.90
52643;DHT22;38531;53.296;6.614;2022-12-19T14:22:38;8.40;99.90
52643;DHT22;38531;53.296;6.614;2022-12-19T14:28:27;8.50;99.90
52643;DHT22;38531;53.296;6.614;2022-12-19T14:31:06;8.50;99.90
52643;DHT22;38531;53.296;6.614;2022-12-19T14:34:39;8.60;99.90
52643;DHT22;38531;53.296;6.614;2022-12-19T14:37:49;8.00;99.90
52643;DHT22;38531;53.296;6.614;2022-12-19T14:40:58;8.50;99.90
52643;DHT22;38531;53.296;6.614;2022-12-19T14:43:53;8.60;99.90
52643;DHT22;38531;53.296;6.614;2022-12-19T14:46:48;8.60;99.90
52643;DHT22;38531;53.296;6.614;2022-12-19T14:53:15;8.60;99.90
52643;DHT22;38531;53.296;6.614;2022-12-19T14:56:35;8.60;99.90
52643;DHT22;38531;53.296;6.614;2022-12-19T14:59:43;8.60;99.90
52643;DHT22;38531;53.296;6.614;2022-12-19T15:02:37;8.50;99.90
52643;DHT22;38531;53.296;6.614;2022-12-19T15:05:25;8.50;99.90
52643;DHT22;38531;53.296;6.614;2022-12-19T15:08:14;8.60;99.90
52643;DHT22;38531;53.296;6.614;2022-12-19T15:10:56;8.60;99.90
52643;DHT22;38531;53.296;6.614;2022-12-19T15:13:59;8.70;99.90
52643;DHT22;38531;53.296;6.614;2022-12-19T15:17:17;8.60;99.90
52643;DHT22;38531;53.296;6.614;2022-12-19T15:20:07;8.60;99.90
52643;DHT22;38531;53.296;6.614;2022-12-19T15:26:17;8.40;99.90
52643;DHT22;38531;53.296;6.614;2022-12-19T15:32:20;8.40;99.90
52643;DHT22;38531;53.296;6.614;2022-12-19T15:35:26;8.30;99.90
52643;DHT22;38531;53.296;6.614;2022-12-19T15:38:11;8.30;99.90
52643;DHT22;38531;53.296;6.614;2022-12-19T15:41:07;8.30;99.90
52643;DHT22;38531;53.296;6.614;2022-12-19T15:47:52;8.40;99.90
52643;DHT22;38531;53.296;6.614;2022-12-19T15:50:36;8.40;99.90
52643;DHT22;38531;53.296;6.614;2022-12-19T15:56:44;8.40;99.90
52643;DHT22;38531;53.296;6.614;2022-12-19T16:02:56;8.30;99.90
52643;DHT22;38531;53.296;6.614;2022-12-19T16:05:41;8.40;99.90
52643;DHT22;38531;53.296;6.614;2022-12-19T16:09:04;8.40;99.90
52643;DHT22;38531;53.296;6.614;2022-12-19T16:15:21;8.20;99.90
52643;DHT22;38531;53.296;6.614;2022-12-19T16:21:45;8.20;99.90
52643;DHT22;38531;53.296;6.614;2022-12-19T16:25:20;8.20;99.90
52643;DHT22;38531;53.296;6.614;2022-12-19T16:28:30;8.00;99.90
52643;DHT22;38531;53.296;6.614;2022-12-19T16:31:39;8.10;99.90
52643;DHT22;38531;53.296;6.614;2022-12-19T16:34:55;8.10;99.90
52643;DHT22;38531;53.296;6.614;2022-12-19T16:38:23;8.00;99.90
52643;DHT22;38531;53.296;6.614;2022-12-19T16:44:41;8.10;99.90
52643;DHT22;38531;53.296;6.614;2022-12-19T16:47:31;7.90;99.90
52643;DHT22;38531;53.296;6.614;2022-12-19T16:54:00;7.90;99.90
52643;DHT22;38531;53.296;6.614;2022-12-19T16:57:08;7.90;99.90
52643;DHT22;38531;53.296;6.614;2022-12-19T17:00:18;8.00;99.90
52643;DHT22;38531;53.296;6.614;2022-12-19T17:03:36;8.00;99.90
52643;DHT22;38531;53.296;6.614;2022-12-19T17:13:12;8.00;99.90
52643;DHT22;38531;53.296;6.614;2022-12-19T17:16:14;7.90;99.90
52643;DHT22;38531;53.296;6.614;2022-12-19T17:32:00;7.80;99.90
52643;DHT22;38531;53.296;6.614;2022-12-19T17:35:26;7.80;99.90
52643;DHT22;38531;53.296;6.614;2022-12-19T17:38:46;7.80;99.90
52643;DHT22;38531;53.296;6.614;2022-12-19T17:41:48;7.90;99.90
52643;DHT22;38531;53.296;6.614;2022-12-19T17:45:03;7.90;99.90
52643;DHT22;38531;53.296;6.614;2022-12-19T17:48:30;8.00;99.90
52643;DHT22;38531;53.296;6.614;2022-12-19T17:51:22;8.00;99.90
52643;DHT22;38531;53.296;6.614;2022-12-19T17:54:10;7.90;99.90
52643;DHT22;38531;53.296;6.614;2022-12-19T17:56:37;7.90;99.90
52643;DHT22;38531;53.296;6.614;2022-12-19T17:59:12;8.00;99.90
52643;DHT22;38531;53.296;6.614;2022-12-19T18:01:46;8.00;99.90
52643;DHT22;38531;53.296;6.614;2022-12-19T18:04:23;8.00;99.90
52643;DHT22;38531;53.296;6.614;2022-12-19T18:07:21;8.00;99.90
52643;DHT22;38531;53.296;6.614;2022-12-19T18:10:12;8.00;99.90
52643;DHT22;38531;53.296;6.614;2022-12-19T18:12:48;7.90;99.90
52643;DHT22;38531;53.296;6.614;2022-12-19T18:15:18;7.90;99.90
52643;DHT22;38531;53.296;6.614;2022-12-19T18:17:49;7.90;99.90
52643;DHT22;38531;53.296;6.614;2022-12-19T18:20:29;7.80;99.90
52643;DHT22;38531;53.296;6.614;2022-12-19T18:23:04;7.80;99.90
52643;DHT22;38531;53.296;6.614;2022-12-19T18:25:36;7.80;99.90
52643;DHT22;38531;53.296;6.614;2022-12-19T18:28:09;7.70;99.90
52643;DHT22;38531;53.296;6.614;2022-12-19T18:30:40;7.70;99.90
52643;DHT22;38531;53.296;6.614;2022-12-19T18:37:14;7.30;99.90
52643;DHT22;38531;53.296;6.614;2022-12-19T18:54:04;7.40;99.90
52643;DHT22;38531;53.296;6.614;2022-12-19T18:56:53;7.30;99.90
52643;DHT22;38531;53.296;6.614;2022-12-19T18:59:24;7.30;99.90
52643;DHT22;38531;53.296;6.614;2022-12-19T19:01:56;7.30;99.90
52643;DHT22;38531;53.296;6.614;2022-12-19T19:04:26;7.40;99.90
52643;DHT22;38531;53.296;6.614;2022-12-19T19:06:54;7.30;99.90
52643;DHT22;38531;53.296;6.614;2022-12-19T19:09:23;7.30;99.90
52643;DHT22;38531;53.296;6.614;2022-12-19T19:11:53;7.30;99.90
52643;DHT22;38531;53.296;6.614;2022-12-19T19:14:24;7.30;99.90
52643;DHT22;38531;53.296;6.614;2022-12-19T19:16:53;7.30;99.90
52643;DHT22;38531;53.296;6.614;2022-12-19T19:19:21;7.40;99.90
52643;DHT22;38531;53.296;6.614;2022-12-19T19:21:51;7.50;99.90
52643;DHT22;38531;53.296;6.614;2022-12-19T19:24:24;7.50;99.90
52643;DHT22;38531;53.296;6.614;2022-12-19T19:26:55;7.50;99.90
52643;DHT22;38531;53.296;6.614;2022-12-19T19:29:33;7.60;99.90
52643;DHT22;38531;53.296;6.614;2022-12-19T19:32:05;7.50;99.90
52643;DHT22;38531;53.296;6.614;2022-12-19T19:34:41;7.50;99.90
52643;DHT22;38531;53.296;6.614;2022-12-19T19:37:08;7.40;99.90
52643;DHT22;38531;53.296;6.614;2022-12-19T19:39:42;7.40;99.90
52643;DHT22;38531;53.296;6.614;2022-12-19T19:42:10;7.30;99.90
52643;DHT22;38531;53.296;6.614;2022-12-19T19:44:37;7.30;99.90
52643;DHT22;38531;53.296;6.614;2022-12-19T19:47:05;7.30;99.90
52643;DHT22;38531;53.296;6.614;2022-12-19T19:49:41;7.30;99.90
52643;DHT22;38531;53.296;6.614;2022-12-19T19:52:19;7.30;99.90
52643;DHT22;38531;53.296;6.614;2022-12-19T19:54:49;7.30;99.90
52643;DHT22;38531;53.296;6.614;2022-12-19T19:57:16;7.30;99.90
52643;DHT22;38531;53.296;6.614;2022-12-19T19:59:46;7.40;99.90
52643;DHT22;38531;53.296;6.614;2022-12-19T20:02:13;7.30;99.90
52643;DHT22;38531;53.296;6.614;2022-12-19T20:04:43;7.30;99.90
52643;DHT22;38531;53.296;6.614;2022-12-19T20:07:12;7.30;99.90
52643;DHT22;38531;53.296;6.614;2022-12-19T20:09:40;7.40;99.90
52643;DHT22;38531;53.296;6.614;2022-12-19T20:12:08;7.40;99.90
52643;DHT22;38531;53.296;6.614;2022-12-19T20:14:35;7.40;99.90
52643;DHT22;38531;53.296;6.614;2022-12-19T20:17:04;7.40;99.90
52643;DHT22;38531;53.296;6.614;2022-12-19T20:19:36;7.40;99.90
52643;DHT22;38531;53.296;6.614;2022-12-19T20:22:14;7.40;99.90
52643;DHT22;38531;53.296;6.614;2022-12-19T20:24:41;7.40;99.90
52643;DHT22;38531;53.296;6.614;2022-12-19T20:27:08;7.50;99.90
52643;DHT22;38531;53.296;6.614;2022-12-19T20:29:42;7.50;99.90
52643;DHT22;38531;53.296;6.614;2022-12-19T20:32:09;7.60;99.90
52643;DHT22;38531;53.296;6.614;2022-12-19T20:34:47;7.70;99.90
52643;DHT22;38531;53.296;6.614;2022-12-19T20:37:19;7.70;99.90
52643;DHT22;38531;53.296;6.614;2022-12-19T20:39:50;7.70;99.90
52643;DHT22;38531;53.296;6.614;2022-12-19T20:42:19;7.80;99.90
52643;DHT22;38531;53.296;6.614;2022-12-19T20:44:51;7.80;99.90
52643;DHT22;38531;53.296;6.614;2022-12-19T20:47:21;7.80;99.90
52643;DHT22;38531;53.296;6.614;2022-12-19T20:49:52;7.90;99.90
52643;DHT22;38531;53.296;6.614;2022-12-19T20:52:19;7.90;99.90
52643;DHT22;38531;53.296;6.614;2022-12-19T20:54:48;7.90;99.90
52643;DHT22;38531;53.296;6.614;2022-12-19T20:57:22;7.90;99.90
52643;DHT22;38531;53.296;6.614;2022-12-19T20:59:50;8.00;99.90
52643;DHT22;38531;53.296;6.614;2022-12-19T21:02:20;7.90;99.90
52643;DHT22;38531;53.296;6.614;2022-12-19T21:04:46;8.20;99.90
52643;DHT22;38531;53.296;6.614;2022-12-19T21:07:16;7.90;99.90
52643;DHT22;38531;53.296;6.614;2022-12-19T21:10:08;7.90;99.90
52643;DHT22;38531;53.296;6.614;2022-12-19T21:13:05;7.90;99.90
52643;DHT22;38531;53.296;6.614;2022-12-19T21:19:31;7.90;99.90
52643;DHT22;38531;53.296;6.614;2022-12-19T21:22:48;7.90;99.90
52643;DHT22;38531;53.296;6.614;2022-12-19T21:26:16;7.90;99.90
52643;DHT22;38531;53.296;6.614;2022-12-19T21:32:55;7.90;99.90
52643;DHT22;38531;53.296;6.614;2022-12-19T21:36:22;7.90;99.90
52643;DHT22;38531;53.296;6.614;2022-12-19T21:39:36;7.90;99.90
52643;DHT22;38531;53.296;6.614;2022-12-19T21:42:46;7.90;99.90
52643;DHT22;38531;53.296;6.614;2022-12-19T21:49:18;8.00;99.90
52643;DHT22;38531;53.296;6.614;2022-12-19T21:52:42;8.00;99.90
52643;DHT22;38531;53.296;6.614;2022-12-19T21:59:28;8.10;99.90
52643;DHT22;38531;53.296;6.614;2022-12-19T22:09:21;8.20;99.90
52643;DHT22;38531;53.296;6.614;2022-12-19T22:11:48;8.20;99.90
52643;DHT22;38531;53.296;6.614;2022-12-19T22:14:15;8.20;99.90
52643;DHT22;38531;53.296;6.614;2022-12-19T22:16:48;8.20;99.90
52643;DHT22;38531;53.296;6.614;2022-12-19T22:19:23;8.20;99.90
52643;DHT22;38531;53.296;6.614;2022-12-19T22:22:01;8.00;99.90
52643;DHT22;38531;53.296;6.614;2022-12-19T22:24:35;8.30;99.90
52643;DHT22;38531;53.296;6.614;2022-12-19T22:27:01;8.30;99.90
52643;DHT22;38531;53.296;6.614;2022-12-19T22:29:28;8.40;99.90
52643;DHT22;38531;53.296;6.614;2022-12-19T22:31:57;8.40;99.90
52643;DHT22;38531;53.296;6.614;2022-12-19T22:34:22;8.40;99.90
52643;DHT22;38531;53.296;6.614;2022-12-19T22:36:48;8.40;99.90
52643;DHT22;38531;53.296;6.614;2022-12-19T22:39:18;8.50;99.90
52643;DHT22;38531;53.296;6.614;2022-12-19T22:41:44;8.60;99.90
52643;DHT22;38531;53.296;6.614;2022-12-19T22:44:22;8.60;99.90
52643;DHT22;38531;53.296;6.614;2022-12-19T22:46:49;8.70;99.90
52643;DHT22;38531;53.296;6.614;2022-12-19T22:49:15;8.70;99.90
52643;DHT22;38531;53.296;6.614;2022-12-19T22:51:43;8.70;99.90
52643;DHT22;38531;53.296;6.614;2022-12-19T22:54:12;8.70;99.90
52643;DHT22;38531;53.296;6.614;2022-12-19T22:56:42;8.70;99.90
52643;DHT22;38531;53.296;6.614;2022-12-19T22:59:12;8.80;99.90
52643;DHT22;38531;53.296;6.614;2022-12-19T23:01:40;8.80;99.90
52643;DHT22;38531;53.296;6.614;2022-12-19T23:04:09;8.90;99.90
52643;DHT22;38531;53.296;6.614;2022-12-19T23:06:39;9.00;99.90
52643;DHT22;38531;53.296;6.614;2022-12-19T23:09:10;9.00;99.90
52643;DHT22;38531;53.296;6.614;2022-12-19T23:11:38;8.60;99.90
52643;DHT22;38531;53.296;6.614;2022-12-19T23:14:06;9.00;99.90
52643;DHT22;38531;53.296;6.614;2022-12-19T23:20:14;9.20;99.90
52643;DHT22;38531;53.296;6.614;2022-12-19T23:23:12;9.30;99.90
52643;DHT22;38531;53.296;6.614;2022-12-19T23:26:34;9.30;99.90
52643;DHT22;38531;53.296;6.614;2022-12-19T23:29:52;9.30;99.90
52643;DHT22;38531;53.296;6.614;2022-12-19T23:33:03;9.30;99.90
52643;DHT22;38531;53.296;6.614;2022-12-19T23:36:13;9.40;99.90
52643;DHT22;38531;53.296;6.614;2022-12-19T23:39:13;9.50;99.90
52643;DHT22;38531;53.296;6.614;2022-12-19T23:42:48;9.50;99.90
52643;DHT22;38531;53.296;6.614;2022-12-19T23:46:24;9.60;99.90
52643;DHT22;38531;53.296;6.614;2022-12-19T23:52:58;9.60;99.90
52643;DHT22;38531;53.296;6.614;2022-12-19T23:56:20;9.60;99.90
